Slatina, Romania
Current Conditions -  °F | °C
As of 11:00 AM on Saturday 25 Oct 2014 (Local Time) from LRCV Reporting Station
Light Rain Light Rain  
Wind Chill: 36°   Ceiling: 1200
Heat Index: 39°   Visibility: 2.1mi
Dew Point: 36°   Wind: 5mph
Humidity: 87%   Direction: 210°SSW
Pressure: 30.24"   Gusts: NA
Location:  44.44°N, 24.36°E
Report Text: LRCV 250800Z 21004KT 170V230 3500 -RA BR FEW002 BKN012 BKN01804/02 Q1024 RERA R09/29//95
Loading
Personal Weather Stations






























Interactive Weather Map
Tropical Storm Tracking
New forecast layout! Learn more

10-Day Weather Forecast

Advertisements
Track Severe Weather on mobile